sensor_id;sensor_type;location;lat;lon;timestamp;temperature;humidity
57026;DHT22;43961;52.940;6.834;2023-02-28T00:00:36;3.60;99.90
57026;DHT22;43961;52.940;6.834;2023-02-28T00:03:02;3.60;99.90
57026;DHT22;43961;52.940;6.834;2023-02-28T00:05:29;3.60;99.90
57026;DHT22;43961;52.940;6.834;2023-02-28T00:07:55;3.60;99.90
57026;DHT22;43961;52.940;6.834;2023-02-28T00:10:24;3.60;99.90
57026;DHT22;43961;52.940;6.834;2023-02-28T00:12:52;3.70;99.90
57026;DHT22;43961;52.940;6.834;2023-02-28T00:15:19;3.70;99.90
57026;DHT22;43961;52.940;6.834;2023-02-28T00:17:45;3.70;99.90
57026;DHT22;43961;52.940;6.834;2023-02-28T00:20:12;3.70;99.90
57026;DHT22;43961;52.940;6.834;2023-02-28T00:22:40;3.70;99.90
57026;DHT22;43961;52.940;6.834;2023-02-28T00:25:08;3.70;99.90
57026;DHT22;43961;52.940;6.834;2023-02-28T00:27:38;3.70;99.90
57026;DHT22;43961;52.940;6.834;2023-02-28T00:30:05;3.70;99.90
57026;DHT22;43961;52.940;6.834;2023-02-28T00:32:32;3.70;99.90
57026;DHT22;43961;52.940;6.834;2023-02-28T00:34:57;3.70;99.90
57026;DHT22;43961;52.940;6.834;2023-02-28T00:37:23;3.70;99.90
57026;DHT22;43961;52.940;6.834;2023-02-28T00:39:49;3.70;99.90
57026;DHT22;43961;52.940;6.834;2023-02-28T00:42:14;3.70;99.90
57026;DHT22;43961;52.940;6.834;2023-02-28T00:44:41;3.80;99.90
57026;DHT22;43961;52.940;6.834;2023-02-28T00:47:07;3.70;99.90
57026;DHT22;43961;52.940;6.834;2023-02-28T00:49:32;3.70;99.90
57026;DHT22;43961;52.940;6.834;2023-02-28T00:51:58;3.80;99.90
57026;DHT22;43961;52.940;6.834;2023-02-28T00:54:24;3.70;99.90
57026;DHT22;43961;52.940;6.834;2023-02-28T00:56:50;3.80;99.90
57026;DHT22;43961;52.940;6.834;2023-02-28T00:59:16;3.70;99.90
57026;DHT22;43961;52.940;6.834;2023-02-28T01:01:44;3.80;99.90
57026;DHT22;43961;52.940;6.834;2023-02-28T01:04:10;3.80;99.90
57026;DHT22;43961;52.940;6.834;2023-02-28T01:06:36;3.90;99.90
57026;DHT22;43961;52.940;6.834;2023-02-28T01:09:03;3.80;99.90
57026;DHT22;43961;52.940;6.834;2023-02-28T01:11:28;3.80;99.90
57026;DHT22;43961;52.940;6.834;2023-02-28T01:13:54;3.80;99.90
57026;DHT22;43961;52.940;6.834;2023-02-28T01:16:20;3.80;99.90
57026;DHT22;43961;52.940;6.834;2023-02-28T01:18:45;3.80;99.90
57026;DHT22;43961;52.940;6.834;2023-02-28T01:21:13;3.90;99.90
57026;DHT22;43961;52.940;6.834;2023-02-28T01:23:40;3.80;99.90
57026;DHT22;43961;52.940;6.834;2023-02-28T01:26:08;3.80;99.90
57026;DHT22;43961;52.940;6.834;2023-02-28T01:28:34;3.80;99.90
57026;DHT22;43961;52.940;6.834;2023-02-28T01:31:00;3.80;99.90
57026;DHT22;43961;52.940;6.834;2023-02-28T01:33:26;3.90;99.90
57026;DHT22;43961;52.940;6.834;2023-02-28T01:36:04;3.80;99.90
57026;DHT22;43961;52.940;6.834;2023-02-28T01:38:31;3.80;99.90
57026;DHT22;43961;52.940;6.834;2023-02-28T01:40:57;3.70;99.90
57026;DHT22;43961;52.940;6.834;2023-02-28T01:43:26;3.70;99.90
57026;DHT22;43961;52.940;6.834;2023-02-28T01:45:53;3.60;99.90
57026;DHT22;43961;52.940;6.834;2023-02-28T01:48:31;3.60;99.90
57026;DHT22;43961;52.940;6.834;2023-02-28T01:51:02;3.60;99.90
57026;DHT22;43961;52.940;6.834;2023-02-28T01:53:34;3.60;99.90
57026;DHT22;43961;52.940;6.834;2023-02-28T01:56:04;3.60;99.90
57026;DHT22;43961;52.940;6.834;2023-02-28T01:58:31;3.60;99.90
57026;DHT22;43961;52.940;6.834;2023-02-28T02:00:57;3.60;99.90
57026;DHT22;43961;52.940;6.834;2023-02-28T02:03:24;3.50;99.90
57026;DHT22;43961;52.940;6.834;2023-02-28T02:05:50;3.50;99.90
57026;DHT22;43961;52.940;6.834;2023-02-28T02:08:22;3.50;99.90
57026;DHT22;43961;52.940;6.834;2023-02-28T02:10:59;3.60;99.90
57026;DHT22;43961;52.940;6.834;2023-02-28T02:13:38;3.50;99.90
57026;DHT22;43961;52.940;6.834;2023-02-28T02:21:54;3.50;99.90
57026;DHT22;43961;52.940;6.834;2023-02-28T02:24:33;3.50;99.90
57026;DHT22;43961;52.940;6.834;2023-02-28T02:30:21;3.50;99.90
57026;DHT22;43961;52.940;6.834;2023-02-28T02:36:18;3.50;99.90
57026;DHT22;43961;52.940;6.834;2023-02-28T02:39:13;3.50;99.90
57026;DHT22;43961;52.940;6.834;2023-02-28T02:41:52;3.50;99.90
57026;DHT22;43961;52.940;6.834;2023-02-28T02:44:31;3.60;99.90
57026;DHT22;43961;52.940;6.834;2023-02-28T02:47:15;3.60;99.90
57026;DHT22;43961;52.940;6.834;2023-02-28T02:49:49;3.60;99.90
57026;DHT22;43961;52.940;6.834;2023-02-28T02:52:20;3.60;99.90
57026;DHT22;43961;52.940;6.834;2023-02-28T02:54:48;3.60;99.90
57026;DHT22;43961;52.940;6.834;2023-02-28T02:57:22;3.60;99.90
57026;DHT22;43961;52.940;6.834;2023-02-28T02:59:50;3.50;99.90
57026;DHT22;43961;52.940;6.834;2023-02-28T03:02:17;3.60;99.90
57026;DHT22;43961;52.940;6.834;2023-02-28T03:04:48;3.60;99.90
57026;DHT22;43961;52.940;6.834;2023-02-28T03:07:15;3.60;99.90
57026;DHT22;43961;52.940;6.834;2023-02-28T03:09:54;3.60;99.90
57026;DHT22;43961;52.940;6.834;2023-02-28T03:12:45;3.60;99.90
57026;DHT22;43961;52.940;6.834;2023-02-28T03:15:27;3.70;99.90
57026;DHT22;43961;52.940;6.834;2023-02-28T03:18:14;3.60;99.90
57026;DHT22;43961;52.940;6.834;2023-02-28T03:26:12;3.70;99.90
57026;DHT22;43961;52.940;6.834;2023-02-28T03:28:52;3.70;99.90
57026;DHT22;43961;52.940;6.834;2023-02-28T03:31:36;3.70;99.90
57026;DHT22;43961;52.940;6.834;2023-02-28T03:34:31;3.70;99.90
57026;DHT22;43961;52.940;6.834;2023-02-28T03:36:59;3.60;99.90
57026;DHT22;43961;52.940;6.834;2023-02-28T03:39:36;3.60;99.90
57026;DHT22;43961;52.940;6.834;2023-02-28T03:42:12;3.70;99.90
57026;DHT22;43961;52.940;6.834;2023-02-28T03:44:42;3.70;99.90
57026;DHT22;43961;52.940;6.834;2023-02-28T03:47:17;3.70;99.90
57026;DHT22;43961;52.940;6.834;2023-02-28T03:49:53;3.60;99.90
57026;DHT22;43961;52.940;6.834;2023-02-28T03:52:22;3.60;99.90
57026;DHT22;43961;52.940;6.834;2023-02-28T03:54:57;3.60;99.90
57026;DHT22;43961;52.940;6.834;2023-02-28T04:00:25;3.60;99.90
57026;DHT22;43961;52.940;6.834;2023-02-28T04:02:54;3.60;99.90
57026;DHT22;43961;52.940;6.834;2023-02-28T04:05:21;3.60;99.90
57026;DHT22;43961;52.940;6.834;2023-02-28T04:07:47;3.60;99.90
57026;DHT22;43961;52.940;6.834;2023-02-28T04:10:13;3.60;99.90
57026;DHT22;43961;52.940;6.834;2023-02-28T04:12:40;3.60;99.90
57026;DHT22;43961;52.940;6.834;2023-02-28T04:15:06;3.60;99.90
57026;DHT22;43961;52.940;6.834;2023-02-28T04:17:32;3.60;99.90
57026;DHT22;43961;52.940;6.834;2023-02-28T04:19:57;3.60;99.90
57026;DHT22;43961;52.940;6.834;2023-02-28T04:22:23;3.60;99.90
57026;DHT22;43961;52.940;6.834;2023-02-28T04:24:52;3.60;99.90
57026;DHT22;43961;52.940;6.834;2023-02-28T04:27:21;3.60;99.90
57026;DHT22;43961;52.940;6.834;2023-02-28T04:29:48;3.60;99.90
57026;DHT22;43961;52.940;6.834;2023-02-28T04:32:13;3.60;99.90
57026;DHT22;43961;52.940;6.834;2023-02-28T04:34:39;3.60;99.90
57026;DHT22;43961;52.940;6.834;2023-02-28T04:37:05;3.60;99.90
57026;DHT22;43961;52.940;6.834;2023-02-28T04:39:35;3.60;99.90
57026;DHT22;43961;52.940;6.834;2023-02-28T04:42:02;3.60;99.90
57026;DHT22;43961;52.940;6.834;2023-02-28T04:44:27;3.60;99.90
57026;DHT22;43961;52.940;6.834;2023-02-28T04:46:53;3.60;99.90
57026;DHT22;43961;52.940;6.834;2023-02-28T04:49:19;3.60;99.90
57026;DHT22;43961;52.940;6.834;2023-02-28T04:51:44;3.50;99.90
57026;DHT22;43961;52.940;6.834;2023-02-28T04:54:10;3.50;99.90
57026;DHT22;43961;52.940;6.834;2023-02-28T04:56:36;3.50;99.90
57026;DHT22;43961;52.940;6.834;2023-02-28T04:59:01;3.50;99.90
57026;DHT22;43961;52.940;6.834;2023-02-28T05:01:29;3.60;99.90
57026;DHT22;43961;52.940;6.834;2023-02-28T05:03:57;3.50;99.90
57026;DHT22;43961;52.940;6.834;2023-02-28T05:06:25;3.50;99.90
57026;DHT22;43961;52.940;6.834;2023-02-28T05:08:51;3.50;99.90
57026;DHT22;43961;52.940;6.834;2023-02-28T05:11:21;3.50;99.90
57026;DHT22;43961;52.940;6.834;2023-02-28T05:13:48;3.50;99.90
57026;DHT22;43961;52.940;6.834;2023-02-28T05:16:16;3.50;99.90
57026;DHT22;43961;52.940;6.834;2023-02-28T05:18:42;3.40;99.90
57026;DHT22;43961;52.940;6.834;2023-02-28T05:23:59;3.40;99.90
57026;DHT22;43961;52.940;6.834;2023-02-28T05:26:26;3.40;99.90
57026;DHT22;43961;52.940;6.834;2023-02-28T05:28:52;3.40;99.90
57026;DHT22;43961;52.940;6.834;2023-02-28T05:31:18;3.50;99.90
57026;DHT22;43961;52.940;6.834;2023-02-28T05:33:44;3.50;99.90
57026;DHT22;43961;52.940;6.834;2023-02-28T05:36:10;3.40;99.90
57026;DHT22;43961;52.940;6.834;2023-02-28T05:38:35;3.40;99.90
57026;DHT22;43961;52.940;6.834;2023-02-28T05:41:08;3.40;99.90
57026;DHT22;43961;52.940;6.834;2023-02-28T05:43:35;3.40;99.90
57026;DHT22;43961;52.940;6.834;2023-02-28T05:46:05;3.50;99.90
57026;DHT22;43961;52.940;6.834;2023-02-28T05:48:32;3.40;99.90
57026;DHT22;43961;52.940;6.834;2023-02-28T05:50:58;3.40;99.90
57026;DHT22;43961;52.940;6.834;2023-02-28T05:53:24;3.40;99.90
57026;DHT22;43961;52.940;6.834;2023-02-28T05:55:49;3.40;99.90
57026;DHT22;43961;52.940;6.834;2023-02-28T05:58:15;3.40;99.90
57026;DHT22;43961;52.940;6.834;2023-02-28T06:00:40;3.40;99.90
57026;DHT22;43961;52.940;6.834;2023-02-28T06:03:06;3.40;99.90
57026;DHT22;43961;52.940;6.834;2023-02-28T06:05:32;3.40;99.90
57026;DHT22;43961;52.940;6.834;2023-02-28T06:07:58;3.40;99.90
57026;DHT22;43961;52.940;6.834;2023-02-28T06:10:24;3.40;99.90
57026;DHT22;43961;52.940;6.834;2023-02-28T06:12:49;3.40;99.90
57026;DHT22;43961;52.940;6.834;2023-02-28T06:15:16;3.30;99.90
57026;DHT22;43961;52.940;6.834;2023-02-28T06:17:43;3.30;99.90
57026;DHT22;43961;52.940;6.834;2023-02-28T06:20:11;3.30;99.90
57026;DHT22;43961;52.940;6.834;2023-02-28T06:22:39;3.30;99.90
57026;DHT22;43961;52.940;6.834;2023-02-28T06:25:06;3.20;99.90
57026;DHT22;43961;52.940;6.834;2023-02-28T06:27:33;3.20;99.90
57026;DHT22;43961;52.940;6.834;2023-02-28T06:29:59;3.30;99.90
57026;DHT22;43961;52.940;6.834;2023-02-28T06:32:25;3.30;99.90
57026;DHT22;43961;52.940;6.834;2023-02-28T06:34:51;3.20;99.90
57026;DHT22;43961;52.940;6.834;2023-02-28T06:37:17;3.20;99.90
57026;DHT22;43961;52.940;6.834;2023-02-28T06:39:43;3.20;99.90
57026;DHT22;43961;52.940;6.834;2023-02-28T06:42:09;3.20;99.90
57026;DHT22;43961;52.940;6.834;2023-02-28T06:44:35;3.40;99.90
57026;DHT22;43961;52.940;6.834;2023-02-28T06:47:04;3.40;99.90
57026;DHT22;43961;52.940;6.834;2023-02-28T06:49:31;3.40;99.90
57026;DHT22;43961;52.940;6.834;2023-02-28T06:51:57;3.60;99.90
57026;DHT22;43961;52.940;6.834;2023-02-28T06:54:23;3.80;99.90
57026;DHT22;43961;52.940;6.834;2023-02-28T06:56:49;3.80;99.90
57026;DHT22;43961;52.940;6.834;2023-02-28T06:59:14;3.80;99.90
57026;DHT22;43961;52.940;6.834;2023-02-28T07:01:40;3.80;99.90
57026;DHT22;43961;52.940;6.834;2023-02-28T07:04:06;3.80;99.90
57026;DHT22;43961;52.940;6.834;2023-02-28T07:06:32;3.70;99.90
57026;DHT22;43961;52.940;6.834;2023-02-28T07:08:58;3.70;99.90
57026;DHT22;43961;52.940;6.834;2023-02-28T07:11:25;3.90;99.90
57026;DHT22;43961;52.940;6.834;2023-02-28T07:13:52;4.10;99.90
57026;DHT22;43961;52.940;6.834;2023-02-28T07:16:21;4.30;99.90
57026;DHT22;43961;52.940;6.834;2023-02-28T07:18:47;4.80;99.90
57026;DHT22;43961;52.940;6.834;2023-02-28T07:21:13;5.40;99.90
57026;DHT22;43961;52.940;6.834;2023-02-28T07:23:39;5.40;99.90
57026;DHT22;43961;52.940;6.834;2023-02-28T07:26:06;5.20;99.90
57026;DHT22;43961;52.940;6.834;2023-02-28T07:28:32;5.10;99.90
57026;DHT22;43961;52.940;6.834;2023-02-28T07:31:04;5.30;99.90
57026;DHT22;43961;52.940;6.834;2023-02-28T07:33:30;5.40;99.90
57026;DHT22;43961;52.940;6.834;2023-02-28T07:36:01;5.60;99.90
57026;DHT22;43961;52.940;6.834;2023-02-28T07:38:27;5.80;99.90
57026;DHT22;43961;52.940;6.834;2023-02-28T07:40:52;5.70;99.90
57026;DHT22;43961;52.940;6.834;2023-02-28T07:43:18;5.50;99.90
57026;DHT22;43961;52.940;6.834;2023-02-28T07:45:43;5.40;99.90
57026;DHT22;43961;52.940;6.834;2023-02-28T07:48:09;5.30;99.90
57026;DHT22;43961;52.940;6.834;2023-02-28T07:50:35;5.20;99.90
57026;DHT22;43961;52.940;6.834;2023-02-28T07:53:01;5.20;99.90
57026;DHT22;43961;52.940;6.834;2023-02-28T07:55:27;5.10;99.90
57026;DHT22;43961;52.940;6.834;2023-02-28T07:57:52;5.10;99.90
57026;DHT22;43961;52.940;6.834;2023-02-28T08:00:18;5.00;99.90
57026;DHT22;43961;52.940;6.834;2023-02-28T08:02:44;5.00;99.90
57026;DHT22;43961;52.940;6.834;2023-02-28T08:05:10;5.00;99.90
57026;DHT22;43961;52.940;6.834;2023-02-28T08:07:35;5.00;99.90
57026;DHT22;43961;52.940;6.834;2023-02-28T08:10:01;5.00;99.90
57026;DHT22;43961;52.940;6.834;2023-02-28T08:12:27;4.90;99.90
57026;DHT22;43961;52.940;6.834;2023-02-28T08:14:53;4.80;99.90
57026;DHT22;43961;52.940;6.834;2023-02-28T08:17:19;4.90;99.90
57026;DHT22;43961;52.940;6.834;2023-02-28T08:19:45;4.90;99.90
57026;DHT22;43961;52.940;6.834;2023-02-28T08:22:11;4.90;99.90
57026;DHT22;43961;52.940;6.834;2023-02-28T08:24:37;4.90;99.90
57026;DHT22;43961;52.940;6.834;2023-02-28T08:27:02;4.90;99.90
57026;DHT22;43961;52.940;6.834;2023-02-28T08:29:28;4.90;99.90
57026;DHT22;43961;52.940;6.834;2023-02-28T08:31:55;4.90;99.90
57026;DHT22;43961;52.940;6.834;2023-02-28T08:34:21;4.90;99.90
57026;DHT22;43961;52.940;6.834;2023-02-28T08:36:48;4.80;99.90
57026;DHT22;43961;52.940;6.834;2023-02-28T08:39:14;4.80;99.90
57026;DHT22;43961;52.940;6.834;2023-02-28T08:41:39;4.90;99.90
57026;DHT22;43961;52.940;6.834;2023-02-28T08:44:05;5.00;99.90
57026;DHT22;43961;52.940;6.834;2023-02-28T08:46:31;5.10;99.90
57026;DHT22;43961;52.940;6.834;2023-02-28T08:48:57;5.20;99.90
57026;DHT22;43961;52.940;6.834;2023-02-28T08:51:28;5.20;99.90
57026;DHT22;43961;52.940;6.834;2023-02-28T08:54:01;5.20;99.90
57026;DHT22;43961;52.940;6.834;2023-02-28T08:56:27;5.20;99.90
57026;DHT22;43961;52.940;6.834;2023-02-28T08:58:55;5.20;99.90
57026;DHT22;43961;52.940;6.834;2023-02-28T09:01:26;5.20;99.90
57026;DHT22;43961;52.940;6.834;2023-02-28T09:03:53;5.20;99.90
57026;DHT22;43961;52.940;6.834;2023-02-28T09:06:20;5.30;99.90
57026;DHT22;43961;52.940;6.834;2023-02-28T09:08:47;5.40;99.90
57026;DHT22;43961;52.940;6.834;2023-02-28T09:11:13;5.40;99.90
57026;DHT22;43961;52.940;6.834;2023-02-28T09:13:39;5.50;99.90
57026;DHT22;43961;52.940;6.834;2023-02-28T09:16:07;5.50;99.90
57026;DHT22;43961;52.940;6.834;2023-02-28T09:18:36;5.40;99.90
57026;DHT22;43961;52.940;6.834;2023-02-28T09:21:07;5.40;99.90
57026;DHT22;43961;52.940;6.834;2023-02-28T09:23:34;5.20;99.90
57026;DHT22;43961;52.940;6.834;2023-02-28T09:26:00;5.10;99.90
57026;DHT22;43961;52.940;6.834;2023-02-28T09:28:26;5.10;99.90
57026;DHT22;43961;52.940;6.834;2023-02-28T09:30:53;5.20;99.90
57026;DHT22;43961;52.940;6.834;2023-02-28T09:33:21;5.40;99.90
57026;DHT22;43961;52.940;6.834;2023-02-28T09:35:48;5.60;99.90
57026;DHT22;43961;52.940;6.834;2023-02-28T09:38:13;5.60;99.90
57026;DHT22;43961;52.940;6.834;2023-02-28T09:40:50;5.80;99.90
57026;DHT22;43961;52.940;6.834;2023-02-28T09:43:17;6.00;99.90
57026;DHT22;43961;52.940;6.834;2023-02-28T09:45:52;6.10;99.90
57026;DHT22;43961;52.940;6.834;2023-02-28T09:48:29;6.20;99.90
57026;DHT22;43961;52.940;6.834;2023-02-28T09:53:38;6.20;99.90
57026;DHT22;43961;52.940;6.834;2023-02-28T09:56:20;6.30;99.90
57026;DHT22;43961;52.940;6.834;2023-02-28T09:58:59;6.30;99.90
57026;DHT22;43961;52.940;6.834;2023-02-28T10:01:50;6.40;99.90
57026;DHT22;43961;52.940;6.834;2023-02-28T10:04:42;6.50;99.90
57026;DHT22;43961;52.940;6.834;2023-02-28T10:10:24;6.90;99.90
57026;DHT22;43961;52.940;6.834;2023-02-28T10:12:57;6.90;99.90
57026;DHT22;43961;52.940;6.834;2023-02-28T10:15:27;7.00;99.90
57026;DHT22;43961;52.940;6.834;2023-02-28T10:17:58;7.00;99.90
57026;DHT22;43961;52.940;6.834;2023-02-28T10:20:26;7.10;99.90
57026;DHT22;43961;52.940;6.834;2023-02-28T10:25:35;7.50;99.90
57026;DHT22;43961;52.940;6.834;2023-02-28T10:28:10;7.60;99.90
57026;DHT22;43961;52.940;6.834;2023-02-28T10:30:51;7.40;99.90
57026;DHT22;43961;52.940;6.834;2023-02-28T10:33:25;7.30;99.90
57026;DHT22;43961;52.940;6.834;2023-02-28T10:35:53;7.30;99.90
57026;DHT22;43961;52.940;6.834;2023-02-28T10:38:26;7.30;99.90
57026;DHT22;43961;52.940;6.834;2023-02-28T10:41:14;7.30;99.90
57026;DHT22;43961;52.940;6.834;2023-02-28T10:43:41;7.10;99.90
57026;DHT22;43961;52.940;6.834;2023-02-28T10:48:39;7.10;99.90
57026;DHT22;43961;52.940;6.834;2023-02-28T10:51:11;7.30;99.90
57026;DHT22;43961;52.940;6.834;2023-02-28T10:53:45;7.50;99.90
57026;DHT22;43961;52.940;6.834;2023-02-28T11:01:27;7.90;99.90
57026;DHT22;43961;52.940;6.834;2023-02-28T11:03:59;7.70;99.90
57026;DHT22;43961;52.940;6.834;2023-02-28T11:06:33;7.60;99.90
57026;DHT22;43961;52.940;6.834;2023-02-28T11:09:23;7.60;99.90
57026;DHT22;43961;52.940;6.834;2023-02-28T11:11:49;7.50;99.90
57026;DHT22;43961;52.940;6.834;2023-02-28T11:14:26;7.10;99.90
57026;DHT22;43961;52.940;6.834;2023-02-28T11:16:53;7.00;99.90
57026;DHT22;43961;52.940;6.834;2023-02-28T11:19:27;7.00;99.90
57026;DHT22;43961;52.940;6.834;2023-02-28T11:22:00;7.00;99.90
57026;DHT22;43961;52.940;6.834;2023-02-28T11:24:35;6.80;99.90
57026;DHT22;43961;52.940;6.834;2023-02-28T11:27:03;6.70;99.90
57026;DHT22;43961;52.940;6.834;2023-02-28T11:29:31;6.60;99.90
57026;DHT22;43961;52.940;6.834;2023-02-28T11:34:42;6.70;99.90
57026;DHT22;43961;52.940;6.834;2023-02-28T11:37:27;6.80;99.90
57026;DHT22;43961;52.940;6.834;2023-02-28T11:39:54;7.00;99.90
57026;DHT22;43961;52.940;6.834;2023-02-28T11:42:42;7.10;99.90
57026;DHT22;43961;52.940;6.834;2023-02-28T11:51:21;7.10;99.90
57026;DHT22;43961;52.940;6.834;2023-02-28T11:56:57;7.40;99.90
57026;DHT22;43961;52.940;6.834;2023-02-28T12:05:34;7.60;99.90
57026;DHT22;43961;52.940;6.834;2023-02-28T12:13:24;8.00;99.90
57026;DHT22;43961;52.940;6.834;2023-02-28T12:21:42;8.00;99.90
57026;DHT22;43961;52.940;6.834;2023-02-28T12:26:44;7.70;99.90
57026;DHT22;43961;52.940;6.834;2023-02-28T12:29:26;7.70;99.90
57026;DHT22;43961;52.940;6.834;2023-02-28T12:32:13;7.90;99.90
57026;DHT22;43961;52.940;6.834;2023-02-28T12:34:56;8.20;99.90
57026;DHT22;43961;52.940;6.834;2023-02-28T12:38:03;8.30;99.90
57026;DHT22;43961;52.940;6.834;2023-02-28T12:40:23;8.30;99.90
57026;DHT22;43961;52.940;6.834;2023-02-28T12:42:51;8.20;99.90
57026;DHT22;43961;52.940;6.834;2023-02-28T12:45:30;8.20;99.90
57026;DHT22;43961;52.940;6.834;2023-02-28T12:48:00;8.10;99.90
57026;DHT22;43961;52.940;6.834;2023-02-28T12:50:27;8.00;99.90
57026;DHT22;43961;52.940;6.834;2023-02-28T13:09:34;6.60;99.90
57026;DHT22;43961;52.940;6.834;2023-02-28T13:11:59;6.60;99.90
57026;DHT22;43961;52.940;6.834;2023-02-28T13:14:43;6.70;99.90
57026;DHT22;43961;52.940;6.834;2023-02-28T13:22:39;7.40;99.90
57026;DHT22;43961;52.940;6.834;2023-02-28T13:28:12;7.50;96.50
57026;DHT22;43961;52.940;6.834;2023-02-28T13:39:01;7.50;91.30
57026;DHT22;43961;52.940;6.834;2023-02-28T13:46:33;7.60;93.80
57026;DHT22;43961;52.940;6.834;2023-02-28T13:57:59;7.70;87.50
57026;DHT22;43961;52.940;6.834;2023-02-28T14:06:35;7.70;76.40
57026;DHT22;43961;52.940;6.834;2023-02-28T14:11:40;7.60;81.80
57026;DHT22;43961;52.940;6.834;2023-02-28T14:14:08;7.70;79.50
57026;DHT22;43961;52.940;6.834;2023-02-28T14:16:41;7.70;81.70
57026;DHT22;43961;52.940;6.834;2023-02-28T14:19:15;7.80;80.20
57026;DHT22;43961;52.940;6.834;2023-02-28T14:32:35;7.70;77.30
57026;DHT22;43961;52.940;6.834;2023-02-28T14:37:51;7.60;75.90
57026;DHT22;43961;52.940;6.834;2023-02-28T14:40:30;7.60;78.20
57026;DHT22;43961;52.940;6.834;2023-02-28T14:43:22;7.60;74.70
57026;DHT22;43961;52.940;6.834;2023-02-28T14:45:53;7.50;76.20
57026;DHT22;43961;52.940;6.834;2023-02-28T14:48:20;7.50;83.90
57026;DHT22;43961;52.940;6.834;2023-02-28T14:50:58;7.50;86.40
57026;DHT22;43961;52.940;6.834;2023-02-28T14:53:30;7.50;83.60
57026;DHT22;43961;52.940;6.834;2023-02-28T14:56:00;7.40;83.10
57026;DHT22;43961;52.940;6.834;2023-02-28T14:58:31;7.40;81.80
57026;DHT22;43961;52.940;6.834;2023-02-28T15:01:00;7.40;79.50
57026;DHT22;43961;52.940;6.834;2023-02-28T15:03:31;7.40;81.40
57026;DHT22;43961;52.940;6.834;2023-02-28T15:06:13;7.30;83.90
57026;DHT22;43961;52.940;6.834;2023-02-28T15:08:40;7.30;84.30
57026;DHT22;43961;52.940;6.834;2023-02-28T15:11:24;7.30;90.60
57026;DHT22;43961;52.940;6.834;2023-02-28T15:13:54;7.30;88.10
57026;DHT22;43961;52.940;6.834;2023-02-28T15:16:38;7.20;87.80
57026;DHT22;43961;52.940;6.834;2023-02-28T15:21:50;7.20;81.20
57026;DHT22;43961;52.940;6.834;2023-02-28T15:24:36;7.10;83.20
57026;DHT22;43961;52.940;6.834;2023-02-28T15:27:34;7.10;73.20
57026;DHT22;43961;52.940;6.834;2023-02-28T15:30:16;7.00;73.90
57026;DHT22;43961;52.940;6.834;2023-02-28T15:32:43;7.00;76.20
57026;DHT22;43961;52.940;6.834;2023-02-28T15:35:29;7.00;74.50
57026;DHT22;43961;52.940;6.834;2023-02-28T15:40:37;7.00;76.80
57026;DHT22;43961;52.940;6.834;2023-02-28T15:43:14;6.90;79.30
57026;DHT22;43961;52.940;6.834;2023-02-28T15:53:38;6.80;94.40
57026;DHT22;43961;52.940;6.834;2023-02-28T15:58:52;6.80;99.90
57026;DHT22;43961;52.940;6.834;2023-02-28T16:01:36;6.70;99.90
57026;DHT22;43961;52.940;6.834;2023-02-28T16:04:06;6.70;99.90
57026;DHT22;43961;52.940;6.834;2023-02-28T16:06:36;6.60;99.90
57026;DHT22;43961;52.940;6.834;2023-02-28T16:09:04;6.60;99.90
57026;DHT22;43961;52.940;6.834;2023-02-28T16:11:39;6.50;99.90
57026;DHT22;43961;52.940;6.834;2023-02-28T16:14:06;6.50;99.90
57026;DHT22;43961;52.940;6.834;2023-02-28T16:16:33;6.40;99.90
57026;DHT22;43961;52.940;6.834;2023-02-28T16:19:00;6.30;99.90
57026;DHT22;43961;52.940;6.834;2023-02-28T16:21:26;6.30;99.90
57026;DHT22;43961;52.940;6.834;2023-02-28T16:23:52;6.20;99.90
57026;DHT22;43961;52.940;6.834;2023-02-28T16:26:26;6.10;99.90
57026;DHT22;43961;52.940;6.834;2023-02-28T16:28:54;6.00;99.90
57026;DHT22;43961;52.940;6.834;2023-02-28T16:31:20;5.90;99.90
57026;DHT22;43961;52.940;6.834;2023-02-28T16:33:46;5.80;99.90
57026;DHT22;43961;52.940;6.834;2023-02-28T16:36:21;5.80;99.90
57026;DHT22;43961;52.940;6.834;2023-02-28T16:38:47;5.70;99.90
57026;DHT22;43961;52.940;6.834;2023-02-28T16:41:19;5.60;99.90
57026;DHT22;43961;52.940;6.834;2023-02-28T16:43:50;5.50;99.90
57026;DHT22;43961;52.940;6.834;2023-02-28T16:46:17;5.50;99.90
57026;DHT22;43961;52.940;6.834;2023-02-28T16:48:44;5.40;99.90
57026;DHT22;43961;52.940;6.834;2023-02-28T16:51:14;5.30;99.90
57026;DHT22;43961;52.940;6.834;2023-02-28T16:53:41;5.20;99.90
57026;DHT22;43961;52.940;6.834;2023-02-28T16:56:16;5.20;99.90
57026;DHT22;43961;52.940;6.834;2023-02-28T16:58:43;5.20;99.90
57026;DHT22;43961;52.940;6.834;2023-02-28T17:01:11;5.00;99.90
57026;DHT22;43961;52.940;6.834;2023-02-28T17:03:37;4.90;99.90
57026;DHT22;43961;52.940;6.834;2023-02-28T17:06:04;4.80;99.90
57026;DHT22;43961;52.940;6.834;2023-02-28T17:08:31;4.80;99.90
57026;DHT22;43961;52.940;6.834;2023-02-28T17:10:58;4.70;99.90
57026;DHT22;43961;52.940;6.834;2023-02-28T17:13:24;4.60;99.90
57026;DHT22;43961;52.940;6.834;2023-02-28T17:15:49;4.60;99.90
57026;DHT22;43961;52.940;6.834;2023-02-28T17:18:17;4.60;99.90
57026;DHT22;43961;52.940;6.834;2023-02-28T17:20:47;4.60;99.90
57026;DHT22;43961;52.940;6.834;2023-02-28T17:23:13;4.50;99.90
57026;DHT22;43961;52.940;6.834;2023-02-28T17:25:39;4.50;99.90
57026;DHT22;43961;52.940;6.834;2023-02-28T17:28:05;4.50;99.90
57026;DHT22;43961;52.940;6.834;2023-02-28T17:30:33;4.40;99.90
57026;DHT22;43961;52.940;6.834;2023-02-28T17:32:59;4.40;99.90
57026;DHT22;43961;52.940;6.834;2023-02-28T17:35:24;4.40;99.90
57026;DHT22;43961;52.940;6.834;2023-02-28T17:37:52;4.30;99.90
57026;DHT22;43961;52.940;6.834;2023-02-28T17:40:21;4.20;99.90
57026;DHT22;43961;52.940;6.834;2023-02-28T17:42:47;4.30;99.90
57026;DHT22;43961;52.940;6.834;2023-02-28T17:45:14;4.20;99.90
57026;DHT22;43961;52.940;6.834;2023-02-28T17:47:43;4.10;99.90
57026;DHT22;43961;52.940;6.834;2023-02-28T17:50:17;4.10;99.90
57026;DHT22;43961;52.940;6.834;2023-02-28T17:52:43;4.00;99.90
57026;DHT22;43961;52.940;6.834;2023-02-28T17:55:10;3.90;99.90
57026;DHT22;43961;52.940;6.834;2023-02-28T17:57:36;3.80;99.90
57026;DHT22;43961;52.940;6.834;2023-02-28T18:00:02;3.80;99.90
57026;DHT22;43961;52.940;6.834;2023-02-28T18:02:32;3.70;99.90
57026;DHT22;43961;52.940;6.834;2023-02-28T18:04:58;3.60;99.90
57026;DHT22;43961;52.940;6.834;2023-02-28T18:07:25;3.60;99.90
57026;DHT22;43961;52.940;6.834;2023-02-28T18:09:50;3.60;99.90
57026;DHT22;43961;52.940;6.834;2023-02-28T18:12:16;3.50;99.90
57026;DHT22;43961;52.940;6.834;2023-02-28T18:14:42;3.50;99.90
57026;DHT22;43961;52.940;6.834;2023-02-28T18:17:10;3.40;99.90
57026;DHT22;43961;52.940;6.834;2023-02-28T18:19:37;3.30;99.90
57026;DHT22;43961;52.940;6.834;2023-02-28T18:22:03;3.30;99.90
57026;DHT22;43961;52.940;6.834;2023-02-28T18:24:31;3.30;99.90
57026;DHT22;43961;52.940;6.834;2023-02-28T18:26:57;3.20;99.90
57026;DHT22;43961;52.940;6.834;2023-02-28T18:29:25;3.20;99.90
57026;DHT22;43961;52.940;6.834;2023-02-28T18:31:53;3.10;99.90
57026;DHT22;43961;52.940;6.834;2023-02-28T18:34:20;3.00;99.90
57026;DHT22;43961;52.940;6.834;2023-02-28T18:36:46;3.00;99.90